Tiempo atmosférico en la estación meteorológica de Carcaixent, València/Valencia (25 m.)



Fecha
DESCASC
Temp. máxima en grados centígrados (hora)
DESCASC
Temp. mínima en grados centígrados (hora)
DESCASC
Temp. media en grados centígrados
DESCASC
Racha de viento máxima en m/sg (hora)
DESCASC
Velocidad máxima media en intervalos de 10 minutos(hora)
DESCASC
Precipitaciones diarias en mm
DESCASC
Precipitaciones de 00:00 a 06:00 en mm
DESCASC
Precipitaciones de 06:00 a 12:00 en mm
DESCASC
Precipitaciones de 12:00 a 18:00 en mm
DESCASC
Precipitaciones de 18:00 a 24:00 en mm
DESCASC
23-05-2020 33.5 (15:50) 15.8 (05:10) 24.7 8.89 (20:50) 5.28 (20:30) 0 0 0 0 0
22-05-2020 33.3 (15:40) 17.5 (06:10) 25.4 7.22 (17:50) 4.17 (14:40) 0 0 0 0 0
21-05-2020 32.7 (18:40) 16.1 (00:00) 24.4 7.22 (19:50) 4.44 (19:10) 0 0 0 0 0
20-05-2020 32.7 (16:40) 15.6 (00:00) 24.2 7.78 (19:40) 5.28 (19:50) 0 0 0 0 0
19-05-2020 32.3 (16:20) 13.5 (06:30) 22.9 7.78 (19:20) 4.72 (18:40) 0 0 0 0 0
18-05-2020 29.3 (17:20) 14 (00:00) 21.6 8.89 (19:20) 4.44 (18:50) 0 0 0 0 0
17-05-2020 25.2 (17:20) 13.3 (00:00) 19.3 8.06 (17:10) 3.33 (17:40) 0 0 0 0 0
16-05-2020 19.3 (16:30) 14.8 (00:00) 17 6.94 (14:00) 4.44 (13:40) 2.2 0 0.6 1.6 0
15-05-2020 20.7 (12:30) 10.8 (05:50) 15.8 6.11 (15:00) 3.61 (14:50) 1 0 0 0.4 0.6
14-05-2020 19.9 (19:00) 12.4 (00:00) 16.1 8.33 (12:30) 3.89 (16:50) 24.4 0 22.6 1.8 0
13-05-2020 26.9 (18:20) 12.5 (00:00) 19.7 10 (11:30) 5.28 (12:40) 0 0 0 0 0
12-05-2020 24.4 (14:00) 15.5 (05:40) 19.9 10 (14:00) 5.28 (14:20) 1.6 0 0 0 1.6
11-05-2020 28.4 (15:40) 15.1 (00:00) 21.8 12.78 (16:00) 6.94 (19:20) 0 0 0 0 0
10-05-2020 26.2 (17:30) 15.9 (00:00) 21.1 15.83 (18:30) 8.33 (18:30) 1 0.2 0.8 0 0
09-05-2020 26.1 (13:50) 14.2 (06:50) 20.2 8.61 (14:50) 5.28 (14:40) 0 0 0 0 0
08-05-2020 24.8 (16:00) 14.7 (00:00) 19.7 10 (15:20) 4.72 (14:40) 0 0 0 0 0
07-05-2020 26.3 (14:30) 14.2 (00:00) 20.2 9.72 (13:50) 4.72 (13:30) 0 0 0 0 0
06-05-2020 29.5 (14:50) 14.6 (00:00) 22.1 8.33 (14:20) 4.44 (16:10) 0 0 0 0 0
05-05-2020 31.4 (14:00) 14.2 (00:00) 22.8 8.61 (18:10) 5.28 (17:50) 0 0 0 0 0
04-05-2020 27.8 (16:50) 14.3 (00:00) 21 8.06 (17:40) 5.28 (18:30) 0 0 0 0 0
03-05-2020 29.4 (15:40) 16.2 (07:00) 22.8 9.17 (16:40) 5.28 (14:30) 0 0 0 0 0
02-05-2020 34.1 (17:30) 15.6 (07:10) 24.8 8.33 (17:00) 4.72 (17:00) 0 0 0 0 0
01-05-2020 30.6 (17:10) 13.1 (00:00) 21.9 11.11 (17:50) 6.11 (16:30) 0 0 0 0 0
30-04-2020 27 (17:20) 16.2 (06:20) 21.6 13.89 (17:50) 6.94 (17:00) 0 0 0 0 0
29-04-2020 27.2 (17:50) 11.4 (00:00) 19.3 10.83 (19:10) 5.56 (18:40) 0 0 0 0 0
28-04-2020 24.6 (18:10) 10.8 (06:00) 17.7 12.22 (12:10) 5.56 (15:10) 0 0 0 0 0

Gráficas

Temp. máximas Temp. mínimas Temp. medias Precipitaciones Rachas de viento máximas Velocidades máximas media en intervalos de 10 minutos

Datos horarios

Fecha y hora oficial Temperatura (ºC) Velocidad del viento (km/h) Dirección del viento Racha (km/h) Dirección de racha Precipitación (mm) Presión (hPa) Tendencia (hPa) Humedad (%)
2020-05-27 23:00:00 19.1 5 Nordeste 8 Nordeste 0 -- -- 84
2020-05-27 22:00:00 20 5 Nordeste 14 Nordeste 0 -- -- 79
2020-05-27 21:00:00 21 10 Nordeste 20 Nordeste 0 -- -- 74
2020-05-27 20:00:00 22 13 Nordeste 24 Nordeste 0 -- -- 69
2020-05-27 19:00:00 23.5 14 Nordeste 29 Este 0 -- -- 62
2020-05-27 18:00:00 24.7 16 Nordeste 31 Este 0 -- -- 60
2020-05-27 17:00:00 25.9 15 Nordeste 34 Este 0 -- -- 55
2020-05-27 16:00:00 27.1 15 Nordeste 32 Sudeste 0 -- -- 48
2020-05-27 15:00:00 27.6 19 Nordeste 35 Este 0 -- -- 48
2020-05-27 14:00:00 27.5 17 Nordeste 35 Nordeste 0 -- -- 47
2020-05-27 13:00:00 27.5 17 Nordeste 28 Este 0 -- -- 41
2020-05-27 12:00:00 26.7 9 Nordeste 18 Nordeste 0 -- -- 47
2020-05-27 11:00:00 24.8 3 Sudoeste 13 Sudoeste 0 -- -- 57
2020-05-27 10:00:00 22.5 8 Sur 15 Sur 0 -- -- 65
2020-05-27 09:00:00 19.8 9 Sur 15 Sur 0 -- -- 74
2020-05-27 08:00:00 16.9 8 Sur 14 Sur 0 -- -- 87
2020-05-27 07:00:00 14.6 9 Sur 11 Sur 0 -- -- 93
2020-05-27 06:00:00 13.9 5 Sur 8 Sur 0 -- -- 92
2020-05-27 05:00:00 14.1 4 Sur 10 Sur 0 -- -- 90
2020-05-27 04:00:00 14.2 4 Sur 6 Sur 0 -- -- 91
2020-05-27 03:00:00 14.3 3 Sur 6 Sur 0 -- -- 90
2020-05-27 02:00:00 14.6 3 Sur 5 Sudeste 0 -- -- 86
2020-05-27 01:00:00 15.3 0 Calma 3 Sudoeste 0 -- -- 85
2020-05-27 00:00:00 16.1 0 Calma 4 Sur 0 -- -- 83
2020-05-26 23:00:00 17.6 2 Sudoeste 5 Sudeste 0 -- -- 78
2020-05-26 22:00:00 19.9 0 Calma 7 Nordeste 0 -- -- 70
2020-05-26 21:00:00 23 5 Nordeste 16 Nordeste 0 -- -- 59
2020-05-26 20:00:00 24.6 10 Nordeste 20 Nordeste 0 -- -- 53
2020-05-26 19:00:00 25.1 12 Nordeste 20 Nordeste 0 -- -- 51
2020-05-26 18:00:00 24.8 10 Nordeste 23 Este 0 -- -- 54
2020-05-26 17:00:00 25.5 14 Este 27 Nordeste 0 -- -- 47
2020-05-26 16:00:00 26.3 15 Nordeste 27 Este 0 -- -- 51
2020-05-26 15:00:00 27.1 14 Nordeste 26 Nordeste 0 -- -- 50
2020-05-26 14:00:00 26.8 10 Nordeste 21 Nordeste 0 -- -- 53
2020-05-26 13:00:00 25.1 11 Norte 36 Norte 0 -- -- 59
2020-05-26 12:00:00 24.6 9 Nordeste 17 Nordeste 0 -- -- 63
2020-05-26 11:00:00 21.8 2 Oeste 9 Sudoeste 0 -- -- 75
2020-05-26 10:00:00 20.3 5 Sudoeste 13 Sudoeste 0 -- -- 79
2020-05-26 09:00:00 19.5 0 Calma 9 Sur 0 -- -- 81
2020-05-26 08:00:00 18.3 5 Sur 10 Sur 0 -- -- 87
2020-05-26 07:00:00 16.2 5 Sur 9 Sur 0 -- -- 93
2020-05-26 06:00:00 15.8 5 Oeste 9 Sudoeste 0 -- -- 93
2020-05-26 05:00:00 15.4 0 Calma 5 Sudeste 0 -- -- 92
2020-05-26 04:00:00 15.7 0 Calma 12 Oeste 0 -- -- 91
2020-05-26 03:00:00 15.9 5 Sudeste 8 Sudeste 0 -- -- 89
2020-05-26 02:00:00 16.7 5 Sudeste 8 Sudeste 0 -- -- 88
2020-05-26 01:00:00 17.7 3 Sur 7 Sudoeste 0 -- -- 84
2020-05-26 00:00:00 19 3 Sudeste 10 Norte 0 -- -- 79
2020-05-25 23:00:00 19.5 6 Nordeste 12 Nordeste 0 -- -- 79
2020-05-25 22:00:00 20.5 5 Este 19 Este 0 -- -- 67
2020-05-25 21:00:00 23 6 Este 10 Este 0 -- -- 60
2020-05-25 20:00:00 23.3 4 Este 9 Sudeste 0 -- -- 63
2020-05-25 19:00:00 23.7 5 Sur 13 Sur 0 -- -- 59
2020-05-25 18:00:00 23.9 6 Sudeste 13 Sudeste 0 -- -- 60
2020-05-25 17:00:00 24.6 5 Este 13 Nordeste 0 -- -- 53
2020-05-25 16:00:00 24 7 Nordeste 18 Nordeste 0 -- -- 56
2020-05-25 15:00:00 24.7 12 Nordeste 22 Nordeste 0 -- -- 53
2020-05-25 14:00:00 25.5 10 Este 24 Este 0 -- -- 45
2020-05-25 13:00:00 25.1 13 Nordeste 27 Nordeste 0 -- -- 54
2020-05-25 12:00:00 24.9 13 Nordeste 25 Nordeste 0 -- -- 61
2020-05-25 11:00:00 23.5 10 Nordeste 18 Norte 0 -- -- 66
2020-05-25 10:00:00 21.2 3 Noroeste 8 Sur 0 -- -- 71
2020-05-25 09:00:00 18.9 3 Sudoeste 9 Sur 0 -- -- 80
2020-05-25 08:00:00 15.6 5 Sudoeste 8 Sur 0 -- -- 95
2020-05-25 07:00:00 14 3 Sur 5 Sur 0 -- -- 93
2020-05-25 06:00:00 14.6 3 Sur 8 Sur 0 -- -- 93
2020-05-25 05:00:00 14.4 3 Sur 5 Sur 0 -- -- 91
2020-05-25 04:00:00 14.7 0 Calma 4 Sur 0 -- -- 90
2020-05-25 03:00:00 15.7 3 Sudeste 5 Sudeste 0 -- -- 90
2020-05-25 02:00:00 16.4 2 Sur 5 Sur 0 -- -- 87
2020-05-25 01:00:00 17.8 3 Sudeste 8 Nordeste 0 -- -- 85
2020-05-25 00:00:00 18.6 6 Nordeste 10 Norte 0 -- -- 83
2020-05-24 23:00:00 18.9 4 Nordeste 9 Este 0 -- -- 80
2020-05-24 22:00:00 20 5 Nordeste 9 Este 0 -- -- 75
2020-05-24 21:00:00 21.4 5 Sudeste 14 Sudeste 0 -- -- 70
2020-05-24 20:00:00 22.5 9 Sudeste 23 Sudeste 0 -- -- 68
2020-05-24 19:00:00 23.5 14 Este 22 Sudeste 0 -- -- 66
2020-05-24 18:00:00 24 11 Nordeste 24 Nordeste 0 -- -- 64
2020-05-24 17:00:00 25.7 11 Nordeste 27 Este 0 -- -- 59
2020-05-24 16:00:00 25.7 14 Este 29 Este 0 -- -- 61
2020-05-24 15:00:00 26.1 15 Nordeste 24 Nordeste 0 -- -- 61
2020-05-24 14:00:00 24.9 15 Este 24 Este 0 -- -- 67
2020-05-24 13:00:00 24.1 12 Nordeste 22 Nordeste 0 -- -- 70
2020-05-24 12:00:00 23.8 12 Nordeste 24 Nordeste 0 -- -- 70
2020-05-24 11:00:00 22.7 8 Este 17 Nordeste 0 -- -- 76
2020-05-24 10:00:00 21.8 9 Nordeste 15 Nordeste 0 -- -- 82
2020-05-24 09:00:00 19.9 3 Sudoeste 4 Oeste 0 -- -- 92
2020-05-24 08:00:00 18.2 0 Calma 5 Sudoeste 0 -- -- 93
2020-05-24 07:00:00 17.4 2 Sur 8 Sudeste 0 -- -- 92
2020-05-24 06:00:00 17.5 5 Sur 6 Sur 0 -- -- 93
2020-05-24 05:00:00 17 2 Sudoeste 8 Sudeste 0 -- -- 93
2020-05-24 04:00:00 16.4 0 Calma 9 Sudeste 0 -- -- 91
2020-05-24 03:00:00 16.4 0 Calma 5 Sur 0 -- -- 89
2020-05-24 02:00:00 17.5 3 Sur 5 Sur 0 -- -- 87
2020-05-24 01:00:00 19.3 0 Calma 7 Nordeste 0 -- -- 85
2020-05-24 00:00:00 20.4 4 Nordeste 15 Nordeste 0 -- -- 84
2020-05-23 23:00:00 21.2 10 Nordeste 28 Nordeste 0 -- -- 81
2020-05-23 22:00:00 22 14 Nordeste 28 Norte 0 -- -- 77
2020-05-23 21:00:00 23.4 18 Nordeste 32 Norte 0 -- -- 67
2020-05-23 20:00:00 26.2 18 Norte 31 Norte 0 -- -- 59
2020-05-23 19:00:00 29 18 Norte 27 Norte 0 -- -- 52
2020-05-23 18:00:00 30.2 16 Norte 26 Nordeste 0 -- -- 51
2020-05-23 17:00:00 31.9 12 Nordeste 25 Este 0 -- -- 48
2020-05-23 16:00:00 33.3 13 Este 22 Este 0 -- -- 36
2020-05-23 15:00:00 33 10 Este 21 Norte 0 -- -- 39
2020-05-23 14:00:00 30.7 13 Norte 20 Norte 0 -- -- 48
2020-05-23 13:00:00 30.1 9 Norte 18 Norte 0 -- -- 48
2020-05-23 12:00:00 29.1 5 Norte 13 Noroeste 0 -- -- 47
2020-05-23 11:00:00 26.7 4 Noroeste 9 Nordeste 0 -- -- 57
2020-05-23 10:00:00 23.8 4 Sudoeste 10 Sudoeste 0 -- -- 63
2020-05-23 09:00:00 21 6 Sur 10 Sur 0 -- -- 74
2020-05-23 08:00:00 18.5 3 Sur 13 Sur 0 -- -- 88
2020-05-23 07:00:00 16.5 7 Sur 10 Sur 0 -- -- 91
2020-05-23 06:00:00 16.1 6 Sur 9 Sur 0 -- -- 93
2020-05-23 05:00:00 16 3 Sur 5 Sudeste 0 -- -- 90
2020-05-23 04:00:00 16.8 3 Sur 5 Sur 0 -- -- 90
2020-05-23 03:00:00 17.2 3 Sur 6 Sudeste 0 -- -- 88
2020-05-23 02:00:00 17.9 2 Sudeste 7 Sur 0 -- -- 89
2020-05-23 01:00:00 18.5 6 Sudeste 8 Sudeste 0 -- -- 88
2020-05-23 00:00:00 20.1 2 Sudeste 10 Nordeste 0 -- -- 82
2020-05-22 23:00:00 21.6 5 Norte 18 Norte 0 -- -- 75
2020-05-22 22:00:00 22.7 9 Norte 24 Norte 0 -- -- 75
2020-05-22 21:00:00 24.7 14 Norte 26 Norte 0 -- -- 66
2020-05-22 20:00:00 28 14 Norte 26 Norte 0 -- -- 49
2020-05-22 19:00:00 29 14 Norte 25 Nordeste 0 -- -- 50
2020-05-22 18:00:00 31.6 13 Este 26 Este 0 -- -- 41
2020-05-22 17:00:00 32.2 12 Este 25 Este 0 -- -- 42
2020-05-22 16:00:00 33 12 Este 24 Norte 0 -- -- 42
2020-05-22 15:00:00 31.9 15 Norte 24 Norte 0 -- -- 44
2020-05-22 14:00:00 31.8 10 Norte 18 Norte 0 -- -- 42
2020-05-22 13:00:00 30.6 8 Nordeste 15 Norte 0 -- -- 48
2020-05-22 12:00:00 28.9 8 Nordeste 15 Noroeste 0 -- -- 51
2020-05-22 11:00:00 26.5 5 Noroeste 9 Noroeste 0 -- -- 57
2020-05-22 10:00:00 24.4 2 Oeste 10 Sudoeste 0 -- -- 64
2020-05-22 09:00:00 22.2 4 Sudoeste 9 Sur 0 -- -- 68
2020-05-22 08:00:00 19.8 5 Sur 15 Sur 0 -- -- 80
2020-05-22 07:00:00 17.5 9 Sur 14 Sudeste 0 -- -- 87
2020-05-22 06:00:00 17.6 6 Sur 14 Sur 0 -- -- 86
2020-05-22 05:00:00 18.1 8 Sur 13 Sur 0 -- -- 87
2020-05-22 04:00:00 18.2 9 Sur 13 Sur 0 -- -- 91
2020-05-22 03:00:00 18.1 6 Sur 8 Sur 0 -- -- 91
2020-05-22 02:00:00 18.3 4 Sur 5 Sur 0 -- -- 90
2020-05-22 01:00:00 18.8 3 Sur 6 Sur 0 -- -- 88
2020-05-22 00:00:00 19.6 0 Calma 6 Sudeste 0 -- -- 85
2020-05-21 23:00:00 20.7 3 Sudeste 6 Nordeste 0 -- -- 84
2020-05-21 22:00:00 21.8 6 Nordeste 19 Nordeste 0 -- -- 81
2020-05-21 21:00:00 23.6 13 Nordeste 25 Nordeste 0 -- -- 73
2020-05-21 20:00:00 26.8 13 Norte 26 Norte 0 -- -- 62
2020-05-21 19:00:00 30.6 16 Norte 23 Norte 0 -- -- 51
2020-05-21 18:00:00 32.2 10 Este 22 Sudeste 0 -- -- 41
2020-05-21 17:00:00 31.9 14 Este 23 Este 0 -- -- 42
2020-05-21 16:00:00 32.6 7 Este 21 Norte 0 -- -- 43
2020-05-21 15:00:00 31.3 12 Norte 22 Norte 0 -- -- 44
2020-05-21 14:00:00 31 11 Norte 18 Norte 0 -- -- 45
2020-05-21 13:00:00 30 6 Norte 11 Norte 0 -- -- 42
2020-05-21 12:00:00 28.2 5 Sur 10 Este 0 -- -- 46
2020-05-21 11:00:00 25.9 3 Nordeste 8 Oeste 0 -- -- 48
2020-05-21 10:00:00 23 5 Sudoeste 12 Sudoeste 0 -- -- 57
2020-05-21 09:00:00 20.2 8 Sur 14 Sur 0 -- -- 75
2020-05-21 08:00:00 17.8 6 Sur 10 Sur 0 -- -- 88
2020-05-21 07:00:00 16.1 8 Sur 11 Sur 0 -- -- 92
2020-05-21 06:00:00 16.3 6 Sur 10 Sur 0 -- -- 93
2020-05-21 05:00:00 16.5 4 Sur 8 Sur 0 -- -- 91
2020-05-21 04:00:00 17.3 6 Sur 9 Sur 0 -- -- 92
2020-05-21 03:00:00 17.8 4 Sur 8 Sur 0 -- -- 92
2020-05-21 02:00:00 17.9 4 Sur 6 Sur 0 -- -- 91
2020-05-21 01:00:00 18.7 4 Sur 10 Sur 0 -- -- 90
2020-05-21 00:00:00 19.7 3 Sur 6 Sudeste 0 -- -- 88
2020-05-20 23:00:00 20.6 4 Nordeste 18 Nordeste 0 -- -- 87
2020-05-20 22:00:00 21.4 10 Nordeste 26 Norte 0 -- -- 83
2020-05-20 21:00:00 23 13 Nordeste 28 Nordeste 0 -- -- 70
2020-05-20 20:00:00 24.9 19 Norte 28 Norte 0 -- -- 66
2020-05-20 19:00:00 31.9 10 Nordeste 22 Nordeste 0 -- -- 40
2020-05-20 18:00:00 32.5 11 Este 22 Este 0 -- -- 36
2020-05-20 17:00:00 32.6 13 Este 21 Este 0 -- -- 38
2020-05-20 16:00:00 32.3 10 Sudeste 22 Sudeste 0 -- -- 40
2020-05-20 15:00:00 31.7 10 Nordeste 20 Este 0 -- -- 43
2020-05-20 14:00:00 30.7 7 Noroeste 17 Nordeste 0 -- -- 39
2020-05-20 13:00:00 30 5 Este 13 Este 0 -- -- 39
2020-05-20 12:00:00 28.5 3 Nordeste 8 Nordeste 0 -- -- 41
2020-05-20 11:00:00 26.3 4 Oeste 14 Sur 0 -- -- 49
2020-05-20 10:00:00 23.5 8 Sur 15 Sur 0 -- -- 56
2020-05-20 09:00:00 21 10 Sur 15 Sur 0 -- -- 63
2020-05-20 08:00:00 17.9 9 Sur 16 Sur 0 -- -- 80
2020-05-20 07:00:00 15.8 8 Sur 13 Sur 0 -- -- 87
2020-05-20 06:00:00 15.8 5 Sur 13 Sur 0 -- -- 87
2020-05-20 05:00:00 15.8 8 Sur 10 Sur 0 -- -- 89
2020-05-20 04:00:00 16 4 Sur 9 Sur 0 -- -- 87
2020-05-20 03:00:00 16.4 3 Sur 5 Sur 0 -- -- 88
2020-05-20 02:00:00 17.4 2 Sur 6 Sur 0 -- -- 86
2020-05-20 01:00:00 18.7 5 Sur 8 Sur 0 -- -- 85
2020-05-20 00:00:00 19.7 4 Sur 9 Sudeste 0 -- -- 82
2020-05-19 23:00:00 21.5 6 Nordeste 19 Nordeste 0 -- -- 75
2020-05-19 22:00:00 23.1 10 Nordeste 19 Norte 0 -- -- 70
2020-05-19 21:00:00 26.8 8 Nordeste 17 Nordeste 0 -- -- 44
2020-05-19 20:00:00 29.3 9 Este 28 Sudeste 0 -- -- 39
2020-05-19 19:00:00 30.1 15 Sudeste 28 Sudeste 0 -- -- 39
2020-05-19 18:00:00 31 16 Sudeste 28 Sudeste 0 -- -- 38
2020-05-19 17:00:00 31.8 12 Nordeste 23 Este 0 -- -- 38
2020-05-19 16:00:00 32.1 11 Nordeste 20 Nordeste 0 -- -- 37
2020-05-19 15:00:00 31.7 8 Oeste 18 Noroeste 0 -- -- 39
2020-05-19 14:00:00 30.6 7 Noroeste 19 Noroeste 0 -- -- 37
2020-05-19 13:00:00 28.8 3 Norte 13 Oeste 0 -- -- 42
2020-05-19 12:00:00 27 4 Sur 11 Sur 0 -- -- 45
2020-05-19 11:00:00 24.4 8 Sur 15 Sur 0 -- -- 52
2020-05-19 10:00:00 21.5 7 Sur 14 Sur 0 -- -- 62
2020-05-19 09:00:00 18.7 9 Sur 14 Sur 0 -- -- 78
2020-05-19 08:00:00 15.8 5 Sudoeste 9 Sur 0 -- -- 90
2020-05-19 07:00:00 13.9 6 Sur 12 Sur 0 -- -- 92
2020-05-19 06:00:00 14 7 Sur 11 Sur 0 -- -- 93
2020-05-19 05:00:00 13.7 3 Sur 7 Sudoeste 0 -- -- 91
2020-05-19 04:00:00 14.3 2 Sur 8 Sudeste 0 -- -- 90
2020-05-19 03:00:00 15.1 4 Sur 10 Sur 0 -- -- 91
2020-05-19 02:00:00 15.9 4 Sudeste 6 Sudeste 0 -- -- 90
2020-05-19 01:00:00 16.9 3 Sur 10 Sur 0 -- -- 90
2020-05-19 00:00:00 17.9 6 Sur 9 Sudeste 0 -- -- 89
2020-05-18 23:00:00 19.1 4 Nordeste 16 Nordeste 0 -- -- 85
2020-05-18 22:00:00 20.2 10 Norte 24 Nordeste 0 -- -- 81
2020-05-18 21:00:00 23.3 12 Norte 24 Nordeste 0 -- -- 60
2020-05-18 20:00:00 25.7 13 Nordeste 32 Este 0 -- -- 45
2020-05-18 19:00:00 27.2 16 Este 26 Sudeste 0 -- -- 48
2020-05-18 18:00:00 29.2 11 Sudeste 18 Sudeste 0 -- -- 39
2020-05-18 17:00:00 29.2 9 Sudeste 19 Nordeste 0 -- -- 39
2020-05-18 16:00:00 28.9 7 Norte 15 Nordeste 0 -- -- 44
2020-05-18 15:00:00 28.4 6 Sur 16 Oeste 0 -- -- 38
2020-05-18 14:00:00 27 5 Este 16 Norte 0 -- -- 42
2020-05-18 13:00:00 26.6 5 Este 13 Nordeste 0 -- -- 46
2020-05-18 12:00:00 25.2 5 Sudeste 13 Sudeste 0 -- -- 53
2020-05-18 11:00:00 23.4 3 Sudoeste 14 Sur 0 -- -- 57
2020-05-18 10:00:00 21 6 Sur 15 Sur 0 -- -- 63
2020-05-18 09:00:00 18.6 10 Sur 17 Sur 0 -- -- 74
2020-05-18 08:00:00 15.8 8 Sur 12 Sur 0 -- -- 87
2020-05-18 07:00:00 14 6 Sur 12 Sur 0 -- -- 89
2020-05-18 06:00:00 14.5 6 Sur 12 Sur 0 -- -- 89
2020-05-18 05:00:00 14.8 6 Sur 12 Sur 0 -- -- 89
2020-05-18 04:00:00 14.4 7 Sur 10 Sur 0 -- -- 90
2020-05-18 03:00:00 14.1 4 Sur 9 Sudeste 0 -- -- 90
2020-05-18 02:00:00 14.6 4 Sur 8 Sur 0 -- -- 89
2020-05-18 01:00:00 15.4 4 Sur 8 Sudeste 0 -- -- 86
2020-05-18 00:00:00 16.5 5 Sur 8 Sudoeste 0 -- -- 83
2020-05-17 23:00:00 18 4 Sudoeste 6 Sur 0 -- -- 81
2020-05-17 22:00:00 19.4 0 Calma 10 Sudeste 0 -- -- 73
2020-05-17 21:00:00 20.5 4 Nordeste 15 Nordeste 0 -- -- 61
2020-05-17 20:00:00 23.9 10 Nordeste 17 Norte 0 -- -- 52
2020-05-17 19:00:00 24.2 10 Nordeste 17 Norte 0 -- -- 49
2020-05-17 18:00:00 25.1 8 Noroeste 29 Noroeste 0 -- -- 50
2020-05-17 17:00:00 24.7 4 Sur 16 Norte 0 -- -- 46
2020-05-17 16:00:00 24 10 Nordeste 23 Nordeste 0 -- -- 52
2020-05-17 15:00:00 22.2 11 Nordeste 20 Este 0 -- -- 61
2020-05-17 14:00:00 23.5 6 Nordeste 15 Este 0 -- -- 55
2020-05-17 13:00:00 22.3 6 Norte 13 Este 0 -- -- 64
2020-05-17 12:00:00 22.1 4 Nordeste 9 Este 0 -- -- 60
2020-05-17 11:00:00 21 2 Norte 8 Oeste 0 -- -- 72
2020-05-17 10:00:00 18.9 4 Noroeste 8 Oeste 0 -- -- 77
2020-05-17 09:00:00 16.7 0 Calma 6 Sur 0 -- -- 92
2020-05-17 08:00:00 14.7 0 Calma 5 Sur 0 -- -- 95
2020-05-17 07:00:00 13.3 3 Sur 4 Sur 0 -- -- 93
2020-05-17 06:00:00 14.2 2 Sudeste 6 Sudoeste 0 -- -- 92
2020-05-17 05:00:00 14.9 4 Sudoeste 8 Sur 0 -- -- 93
2020-05-17 04:00:00 15.2 3 Sur 7 Sur 0 -- -- 92
2020-05-17 03:00:00 15.3 5 Sur 8 Sur 0 -- -- 93
2020-05-17 02:00:00 15.3 0 Calma 4 Sur 0 -- -- 93
2020-05-17 01:00:00 15.5 3 Sudoeste 9 Sur 0 -- -- 92
2020-05-17 00:00:00 15.6 0 Calma -- -- 0 -- -- 92
2020-05-16 23:00:00 16.2 0 Calma 4 Sur 0 -- -- 90
2020-05-16 22:00:00 17.1 3 Sudeste 6 Sudeste 0 -- -- 88
2020-05-16 21:00:00 18 2 Sudeste 6 Sudoeste 0 -- -- 83
2020-05-16 20:00:00 19 3 Oeste 10 Sudeste 0 -- -- 74
2020-05-16 19:00:00 17.9 7 Sur 13 Sur 0 -- -- 80
2020-05-16 18:00:00 17.8 6 Sur 18 Sur 0 -- -- 80
2020-05-16 17:00:00 19.1 10 Sudoeste 17 Sur 0 -- -- 77
2020-05-16 16:00:00 18.9 9 Sur 16 Sur 0 -- -- 77
2020-05-16 15:00:00 15 9 Sur 22 Sur 1.4 -- -- 92
2020-05-16 14:00:00 15.2 15 Sur 25 Sur 0.2 -- -- 89
2020-05-16 13:00:00 17.5 6 Nordeste 16 Nordeste 0 -- -- 83
2020-05-16 12:00:00 17.3 5 Nordeste 23 Nordeste 0.6 -- -- 87
2020-05-16 11:00:00 17 7 Nordeste 21 Nordeste 0 -- -- 86
2020-05-16 10:00:00 16.6 2 Sur 5 Oeste 0 -- -- 93
2020-05-16 09:00:00 15.7 2 Sudoeste 5 Oeste 0 -- -- 95
2020-05-16 08:00:00 15.3 2 Oeste 5 Sudoeste 0 -- -- 95
2020-05-16 07:00:00 15.2 0 Calma 7 Sur 0 -- -- 94
2020-05-16 06:00:00 15.3 0 Calma 6 Sur 0 -- -- 94
2020-05-16 05:00:00 15.3 4 Sur 6 Sur 0 -- -- 95
2020-05-16 04:00:00 15.1 4 Sur 5 Sur 0 -- -- 94
2020-05-16 03:00:00 15.4 0 Calma 5 Sur 0 -- -- 93
2020-05-16 02:00:00 15.6 2 Sur 5 Sur 0 -- -- 94
2020-05-16 01:00:00 15.5 0 Calma 6 Sudeste 0 -- -- 93
2020-05-16 00:00:00 15.7 3 Sudeste 5 Sudeste 0.2 -- -- 92
2020-05-15 23:00:00 16 3 Sudeste 6 Sur 0 -- -- 92
2020-05-15 22:00:00 16.5 0 Calma 6 Sudeste 0 -- -- 90
2020-05-15 21:00:00 16.9 0 Calma 10 Noroeste 0 -- -- 88
2020-05-15 20:00:00 17.4 4 Nordeste 5 Nordeste 0.2 -- -- 87
2020-05-15 19:00:00 18.2 0 Calma -- -- 0.2 -- -- 79
2020-05-15 18:00:00 19 0 Calma 7 Nordeste 0.4 -- -- 76
2020-05-15 17:00:00 18.9 5 Nordeste 14 Este 0 -- -- 72
2020-05-15 16:00:00 19.6 10 Nordeste 21 Nordeste 0 -- -- 64
2020-05-15 15:00:00 19.9 12 Nordeste 22 Nordeste 0 -- -- 67
2020-05-15 14:00:00 19.9 10 Nordeste 21 Nordeste 0 -- -- 65
2020-05-15 13:00:00 20.5 9 Nordeste 22 Nordeste 0 -- -- 58
2020-05-15 12:00:00 19.3 6 Nordeste 10 Nordeste 0 -- -- 63
2020-05-15 11:00:00 19.7 0 Calma 9 Sudoeste 0 -- -- 62
2020-05-15 10:00:00 18.2 3 Sudeste 13 Sudoeste 0 -- -- 67
2020-05-15 09:00:00 15.9 8 Sudoeste 13 Sur 0 -- -- 76
2020-05-15 08:00:00 13.3 6 Sur 12 Sur 0 -- -- 87
2020-05-15 07:00:00 11.6 6 Sur 12 Sur 0 -- -- 89
2020-05-15 06:00:00 11 8 Sur 12 Sur 0 -- -- 92
2020-05-15 05:00:00 11.2 4 Sudoeste 12 Sur 0 -- -- 91
2020-05-15 04:00:00 11.2 8 Sur 11 Sur 0 -- -- 92
2020-05-15 03:00:00 11.5 3 Sur 11 Sur 0 -- -- 90
2020-05-15 02:00:00 12.2 7 Sur 11 Sur 0 -- -- 91
2020-05-15 01:00:00 12.1 0 Calma 5 Norte 0 -- -- 90
2020-05-15 00:00:00 12.9 3 Sur 7 Sur 0 -- -- 88
2020-05-14 23:00:00 13.8 4 Sudeste 9 Sur 0 -- -- 86
2020-05-14 22:00:00 14.9 6 Sur 12 Sur 0 -- -- 81
2020-05-14 21:00:00 17 6 Sur 8 Sur 0 -- -- 77
2020-05-14 20:00:00 19.3 3 Sudoeste 21 Oeste 0 -- -- 61
2020-05-14 19:00:00 19.9 11 Oeste 25 Noroeste 0 -- -- 55
2020-05-14 18:00:00 19.5 7 Noroeste 19 Oeste 0 -- -- 56
2020-05-14 17:00:00 18.1 10 Oeste 29 Oeste 0 -- -- 66
2020-05-14 16:00:00 17.5 7 Sudoeste 19 Sudoeste 0.2 -- -- 77
2020-05-14 15:00:00 16.5 9 Sudoeste 17 Sudoeste 0.2 -- -- 80
2020-05-14 14:00:00 14.6 8 Sudoeste 28 Sudoeste 0.8 -- -- 86
2020-05-14 13:00:00 14 12 Oeste 30 Sudoeste 0.6 -- -- 84
2020-05-14 12:00:00 13.3 8 Sudoeste 21 Sudoeste 1 -- -- 89
2020-05-14 11:00:00 13.5 12 Sudoeste 23 Sudoeste 2.8 -- -- 93
2020-05-14 10:00:00 13.5 3 Sudoeste 18 Sudoeste 10.4 -- -- 94
2020-05-14 09:00:00 13.8 9 Sudoeste 27 Oeste 7.2 -- -- 93
2020-05-14 08:00:00 14.9 10 Sur 15 Sur 1.2 -- -- 91
2020-05-14 07:00:00 15 3 Sur 11 Sur 0 -- -- 83
2020-05-14 06:00:00 14.5 4 Sur 13 Sur 0 -- -- 83
2020-05-14 05:00:00 13.5 5 Sur 6 Sur 0 -- -- 89
2020-05-14 04:00:00 12.8 4 Sur 9 Sudeste 0 -- -- 90
2020-05-14 03:00:00 12.7 0 Calma 5 Sudeste 0 -- -- 87
2020-05-14 02:00:00 13.4 0 Calma 5 Sudeste 0 -- -- 85
2020-05-14 01:00:00 14.4 3 Sudoeste 9 Sudeste 0 -- -- 83
2020-05-14 00:00:00 15.4 3 Este 9 Oeste 0 -- -- 79
2020-05-13 23:00:00 17.1 3 Oeste 12 Sur 0 -- -- 69
2020-05-13 22:00:00 18.7 6 Sur 10 Sudeste 0 -- -- 62
2020-05-13 21:00:00 22.9 6 Norte 11 Noroeste 0 -- -- 43
2020-05-13 20:00:00 24.9 4 Norte 12 Norte 0 -- -- 39
2020-05-13 19:00:00 24.9 6 Noroeste 21 Oeste 0 -- -- 40
2020-05-13 18:00:00 25 6 Norte 23 Noroeste 0 -- -- 40
2020-05-13 17:00:00 26.1 9 Noroeste 20 Noroeste 0 -- -- 38
2020-05-13 16:00:00 25.2 18 Noroeste 28 Noroeste 0 -- -- 41
2020-05-13 15:00:00 25.9 13 Oeste 34 Noroeste 0 -- -- 40
2020-05-13 14:00:00 24.7 16 Oeste 30 Oeste 0 -- -- 41
2020-05-13 13:00:00 24.5 15 Oeste 33 Oeste 0 -- -- 42
2020-05-13 12:00:00 22.6 15 Oeste 36 Oeste 0 -- -- 49
2020-05-13 11:00:00 21.1 12 Oeste 26 Noroeste 0 -- -- 55
2020-05-13 10:00:00 19.4 8 Sudoeste 21 Sur 0 -- -- 59
2020-05-13 09:00:00 16.9 13 Sudoeste 23 Sur 0 -- -- 67
2020-05-13 08:00:00 14.5 8 Sur 14 Sur 0 -- -- 75
2020-05-13 07:00:00 12.6 8 Sur 18 Sur 0 -- -- 81
2020-05-13 06:00:00 12.5 8 Sur 21 Sur 0 -- -- 83
2020-05-13 05:00:00 13.6 7 Sudoeste 18 Sudoeste 0 -- -- 79
2020-05-13 04:00:00 13.1 6 Sur 12 Sur 0 -- -- 89
2020-05-13 03:00:00 13.8 5 Sur 11 Sur 0 -- -- 87
2020-05-13 02:00:00 15.4 5 Sur 12 Sur 0 -- -- 80
2020-05-13 01:00:00 15.9 5 Sudoeste 10 Oeste 0 -- -- 78
2020-05-13 00:00:00 16.3 6 Noroeste 12 Noroeste 0 -- -- 80
2020-05-12 23:00:00 17.2 6 Oeste 12 Noroeste 0 -- -- 86
2020-05-12 22:00:00 17.8 7 Noroeste 12 Noroeste 0 -- -- 87
2020-05-12 21:00:00 18.1 7 Norte 11 Norte 0.2 -- -- 87
2020-05-12 20:00:00 18.3 5 Nordeste 11 Nordeste 0 -- -- 88
2020-05-12 19:00:00 18.5 5 Nordeste 12 Nordeste 1.4 -- -- 85
2020-05-12 18:00:00 20 8 Nordeste 23 Nordeste 0 -- -- 68
2020-05-12 17:00:00 21.6 13 Nordeste 30 Este 0 -- -- 57
2020-05-12 16:00:00 21.8 15 Nordeste 31 Nordeste 0 -- -- 55
2020-05-12 15:00:00 23.3 16 Nordeste 35 Este 0 -- -- 53
2020-05-12 14:00:00 24.4 18 Este 36 Sudeste 0 -- -- 51
2020-05-12 13:00:00 23.1 15 Nordeste 26 Nordeste 0 -- -- 53
2020-05-12 12:00:00 24.3 9 Nordeste 21 Nordeste 0 -- -- 48
2020-05-12 11:00:00 22.9 9 Norte 18 Norte 0 -- -- 52
2020-05-12 10:00:00 21 9 Sur 14 Sudeste 0 -- -- 60
2020-05-12 09:00:00 16.9 4 Sur 9 Sudoeste 0 -- -- 77
2020-05-12 08:00:00 16.2 4 Sur 9 Sur 0 -- -- 75
2020-05-12 07:00:00 16.1 3 Oeste 13 Sur 0 -- -- 72
2020-05-12 06:00:00 15.5 5 Sur 13 Sur 0 -- -- 74
2020-05-12 05:00:00 16.7 9 Sur 14 Sur 0 -- -- 69
2020-05-12 04:00:00 17.1 7 Sur 16 Sur 0 -- -- 69
2020-05-12 03:00:00 18 10 Sudoeste 18 Sudoeste 0 -- -- 65
2020-05-12 02:00:00 16.5 7 Sur 11 Sur 0 -- -- 70
2020-05-12 01:00:00 17.8 3 Sudoeste 10 Sur 0 -- -- 66
2020-05-12 00:00:00 17.9 0 Calma -- -- 0 -- -- 67
2020-05-11 23:00:00 19.3 0 Calma 9 Sur 0 -- -- 61
2020-05-11 22:00:00 20.6 3 Sudoeste 21 Oeste 0 -- -- 57
2020-05-11 21:00:00 22.6 4 Oeste 22 Noroeste 0 -- -- 51
2020-05-11 20:00:00 23.8 12 Oeste 39 Noroeste 0 -- -- 48
2020-05-11 19:00:00 26.5 21 Noroeste 38 Noroeste 0 -- -- 42
2020-05-11 18:00:00 27.5 24 Noroeste 41 Noroeste 0 -- -- 38
2020-05-11 17:00:00 27.9 17 Noroeste 36 Noroeste 0 -- -- 39
2020-05-11 16:00:00 28.1 22 Oeste 46 Sudoeste 0 -- -- 37
2020-05-11 15:00:00 27.8 20 Oeste 44 Oeste 0 -- -- 36
2020-05-11 14:00:00 26 23 Oeste 43 Oeste 0 -- -- 39
2020-05-11 13:00:00 26 24 Oeste 44 Oeste 0 -- -- 40
2020-05-11 12:00:00 24.8 23 Oeste 45 Sudoeste 0 -- -- 42
2020-05-11 11:00:00 23.2 22 Oeste 45 Oeste 0 -- -- 44
2020-05-11 10:00:00 21.4 13 Oeste 33 Oeste 0 -- -- 51
2020-05-11 09:00:00 20.1 9 Sudoeste 25 Oeste 0 -- -- 60
2020-05-11 08:00:00 17.4 5 Sudoeste 19 Oeste 0 -- -- 67
2020-05-11 07:00:00 17.1 9 Sudoeste 23 Sudoeste 0 -- -- 65
2020-05-11 06:00:00 16 4 Sudoeste 17 Sur 0 -- -- 68
2020-05-11 05:00:00 15.6 4 Sur 10 Sur 0 -- -- 69
2020-05-11 04:00:00 15.9 6 Sudoeste 20 Oeste 0 -- -- 66
2020-05-11 03:00:00 16.3 8 Sudoeste 18 Sur 0 -- -- 62
2020-05-11 02:00:00 15.1 8 Sur 16 Sur 0 -- -- 66
2020-05-11 01:00:00 16.5 9 Sur 22 Sudoeste 0 -- -- 60
2020-05-11 00:00:00 16.8 9 Sudoeste 17 Sur 0 -- -- 59
2020-05-10 23:00:00 17.3 7 Sur 13 Sudoeste 0 -- -- 59
2020-05-10 22:00:00 19.5 6 Sudoeste 18 Sur 0 -- -- 52
2020-05-10 21:00:00 21.5 12 Oeste 38 Oeste 0 -- -- 44
2020-05-10 20:00:00 23.2 18 Oeste 37 Oeste 0 -- -- 42
2020-05-10 19:00:00 23 22 Oeste 57 Oeste 0 -- -- 43
2020-05-10 18:00:00 26.1 22 Oeste 44 Oeste 0 -- -- 33
2020-05-10 17:00:00 25.5 21 Oeste 43 Sudoeste 0 -- -- 35
2020-05-10 16:00:00 25.6 23 Oeste 45 Noroeste 0 -- -- 37
2020-05-10 15:00:00 25.3 18 Oeste 44 Oeste 0 -- -- 38
2020-05-10 14:00:00 23.7 19 Oeste 46 Oeste 0 -- -- 46
2020-05-10 13:00:00 23 21 Oeste 44 Oeste 0 -- -- 48
2020-05-10 12:00:00 21.5 17 Oeste 32 Sudoeste 0 -- -- 61
2020-05-10 11:00:00 17.3 10 Sur 19 Sur 0 -- -- 81
2020-05-10 10:00:00 16.1 8 Sudoeste 20 Sudoeste 0.2 -- -- 84
2020-05-10 09:00:00 16.2 6 Oeste 24 Sudoeste 0.6 -- -- 83
2020-05-10 08:00:00 16.5 7 Sur 12 Sur 0 -- -- 92
2020-05-10 07:00:00 16.6 8 Sur 13 Sur 0 -- -- 94
2020-05-10 06:00:00 16.6 7 Sur 10 Sur 0 -- -- 95
2020-05-10 05:00:00 16.8 3 Sudeste 9 Sudeste 0 -- -- 94
2020-05-10 04:00:00 17 4 Sur 8 Sur 0 -- -- 93
2020-05-10 03:00:00 17.4 5 Sudeste 12 Noroeste 0.2 -- -- 93
2020-05-10 02:00:00 18.1 10 Noroeste 25 Noroeste 0 -- -- 89
2020-05-10 01:00:00 19.3 4 Norte 13 Norte 0 -- -- 85
2020-05-10 00:00:00 19.3 9 Norte 14 Norte 0 -- -- 84
2020-05-09 23:00:00 19.1 6 Nordeste 12 Nordeste 0 -- -- 86
2020-05-09 22:00:00 19.8 7 Nordeste 17 Este 0 -- -- 83
2020-05-09 21:00:00 20.1 8 Nordeste 19 Nordeste 0 -- -- 81
2020-05-09 20:00:00 20.6 8 Nordeste 26 Este 0 -- -- 79
2020-05-09 19:00:00 21.8 13 Nordeste 23 Nordeste 0 -- -- 73
2020-05-09 18:00:00 23.9 9 Este 25 Este 0 -- -- 64
2020-05-09 17:00:00 24.6 13 Este 27 Sudeste 0 -- -- 63
2020-05-09 16:00:00 25.4 13 Este 26 Este 0 -- -- 61
2020-05-09 15:00:00 25.8 17 Nordeste 31 Nordeste 0 -- -- 59
2020-05-09 14:00:00 26.1 13 Nordeste 24 Nordeste 0 -- -- 59
2020-05-09 13:00:00 25.3 7 Noroeste 19 Noroeste 0 -- -- 61
2020-05-09 12:00:00 24 9 Nordeste 21 Nordeste 0 -- -- 65
2020-05-09 11:00:00 22.2 3 Norte 10 Sur 0 -- -- 73
2020-05-09 10:00:00 19.8 0 Calma 10 Sur 0 -- -- 83
2020-05-09 09:00:00 17.6 5 Sur 9 Sudeste 0 -- -- 94
2020-05-09 08:00:00 15.4 2 Sur 5 Sudeste 0 -- -- 96
2020-05-09 07:00:00 14.2 4 Sur 6 Sudeste 0 -- -- 94
2020-05-09 06:00:00 15.1 2 Sudoeste 5 Sur 0 -- -- 93
2020-05-09 05:00:00 15.9 0 Calma 8 Nordeste 0 -- -- 94
2020-05-09 04:00:00 16 0 Calma 11 Sudeste 0 -- -- 94
2020-05-09 03:00:00 15.1 5 Sudoeste 11 Sudoeste 0 -- -- 94
2020-05-09 02:00:00 15.2 0 Calma 6 Nordeste 0 -- -- 92
2020-05-09 01:00:00 15.1 0 Calma 5 Sur 0 -- -- 90
2020-05-09 00:00:00 15.6 3 Sur 5 Sur 0 -- -- 87
2020-05-08 23:00:00 17.2 3 Sudeste 7 Este 0 -- -- 83
2020-05-08 22:00:00 18.7 6 Nordeste 20 Este 0 -- -- 80
2020-05-08 21:00:00 20.1 12 Nordeste 21 Nordeste 0 -- -- 75
2020-05-08 20:00:00 22 11 Nordeste 21 Este 0 -- -- 69
2020-05-08 19:00:00 23.4 10 Nordeste 21 Este 0 -- -- 64
2020-05-08 18:00:00 23.4 10 Este 22 Este 0 -- -- 64
2020-05-08 17:00:00 24.6 10 Este 30 Nordeste 0 -- -- 58
2020-05-08 16:00:00 24.8 9 Nordeste 36 Este 0 -- -- 51
2020-05-08 15:00:00 23.7 13 Nordeste 30 Nordeste 0 -- -- 61
2020-05-08 14:00:00 22.9 14 Nordeste 26 Norte 0 -- -- 64
2020-05-08 13:00:00 22.6 9 Nordeste 23 Nordeste 0 -- -- 64
2020-05-08 12:00:00 21.9 10 Nordeste 23 Nordeste 0 -- -- 69
2020-05-08 11:00:00 21.1 12 Nordeste 21 Nordeste 0 -- -- 76
2020-05-08 10:00:00 19 6 Norte 15 Norte 0 -- -- 84
2020-05-08 09:00:00 17 3 Sur 13 Oeste 0 -- -- 91
2020-05-08 08:00:00 16.4 7 Noroeste 17 Oeste 0 -- -- 93
2020-05-08 07:00:00 14.8 0 Calma 6 Sudoeste 0 -- -- 93
2020-05-08 06:00:00 15.2 2 Sur 8 Sudoeste 0 -- -- 94
2020-05-08 05:00:00 14.8 0 Calma 5 Oeste 0 -- -- 94
2020-05-08 04:00:00 14.9 3 Sudoeste 8 Oeste 0 -- -- 93
2020-05-08 03:00:00 15.3 4 Sudeste 5 Sudeste 0 -- -- 89
2020-05-08 02:00:00 16.9 2 Sudoeste 8 Nordeste 0 -- -- 88
2020-05-08 01:00:00 18.1 4 Nordeste 11 Nordeste 0 -- -- 90
2020-05-08 00:00:00 18.6 4 Nordeste 10 Nordeste 0 -- -- 85
2020-05-07 23:00:00 19.2 3 Nordeste 11 Nordeste 0 -- -- 83
2020-05-07 22:00:00 20.2 6 Nordeste 16 Nordeste 0 -- -- 77
2020-05-07 21:00:00 21.3 7 Nordeste 15 Nordeste 0 -- -- 71
2020-05-07 20:00:00 22.3 9 Nordeste 17 Nordeste 0 -- -- 65
2020-05-07 19:00:00 23.8 10 Nordeste 20 Nordeste 0 -- -- 62
2020-05-07 18:00:00 24.4 12 Nordeste 24 Este 0 -- -- 56
2020-05-07 17:00:00 25.1 13 Nordeste 26 Nordeste 0 -- -- 48
2020-05-07 16:00:00 25.4 13 Nordeste 24 Nordeste 0 -- -- 50
2020-05-07 15:00:00 25.5 15 Nordeste 26 Nordeste 0 -- -- 47
2020-05-07 14:00:00 25.5 14 Nordeste 35 Norte 0 -- -- 56
2020-05-07 13:00:00 25.4 15 Nordeste 27 Nordeste 0 -- -- 59
2020-05-07 12:00:00 24.5 7 Nordeste 19 Norte 0 -- -- 59
2020-05-07 11:00:00 22.6 8 Norte 17 Nordeste 0 -- -- 70
2020-05-07 10:00:00 20.6 3 Sudoeste 10 Sur 0 -- -- 79
2020-05-07 09:00:00 18.4 5 Sur 9 Sudoeste 0 -- -- 85
2020-05-07 08:00:00 16.6 2 Sur 8 Sur 0 -- -- 95
2020-05-07 07:00:00 15.2 4 Sur 8 Sudeste 0 -- -- 95
2020-05-07 06:00:00 14.2 0 Calma 3 Sur 0 -- -- 93
2020-05-07 05:00:00 14.2 0 Calma 4 Oeste 0 -- -- 92
2020-05-07 04:00:00 14.7 3 Sudoeste 8 Sudeste 0 -- -- 92
2020-05-07 03:00:00 15 6 Sudeste 7 Sudeste 0 -- -- 92
2020-05-07 02:00:00 15 2 Sudeste 6 Sur 0 -- -- 88
2020-05-07 01:00:00 16 3 Sudeste 5 Sur 0 -- -- 87
2020-05-07 00:00:00 17.4 2 Sudeste 8 Nordeste 0 -- -- 84
2020-05-06 23:00:00 18.7 5 Nordeste 8 Nordeste 0 -- -- 82
2020-05-06 22:00:00 20.1 7 Nordeste 14 Nordeste 0 -- -- 78
2020-05-06 21:00:00 21.4 10 Nordeste 20 Nordeste 0 -- -- 70
2020-05-06 20:00:00 22.7 13 Nordeste 24 Nordeste 0 -- -- 60
2020-05-06 19:00:00 25.2 15 Nordeste 26 Nordeste 0 -- -- 58
2020-05-06 18:00:00 27.3 12 Este 24 Este 0 -- -- 49
2020-05-06 17:00:00 27.7 13 Este 28 Este 0 -- -- 50
2020-05-06 16:00:00 28.8 12 Nordeste 25 Este 0 -- -- 49
2020-05-06 15:00:00 29 15 Este 30 Norte 0 -- -- 44
2020-05-06 14:00:00 29.1 12 Nordeste 24 Norte 0 -- -- 45
2020-05-06 13:00:00 28.2 9 Norte 17 Nordeste 0 -- -- 46
2020-05-06 12:00:00 26.9 4 Nordeste 13 Norte 0 -- -- 51
2020-05-06 11:00:00 24.2 2 Sudeste 8 Oeste 0 -- -- 60
2020-05-06 10:00:00 22.4 3 Oeste 10 Sur 0 -- -- 67
2020-05-06 09:00:00 20 6 Sur 14 Sur 0 -- -- 77
2020-05-06 08:00:00 16.7 6 Sur 11 Sur 0 -- -- 94
2020-05-06 07:00:00 15.1 4 Sudoeste 12 Sur 0 -- -- 93
2020-05-06 06:00:00 15.2 7 Sur 9 Sur 0 -- -- 94
2020-05-06 05:00:00 14.6 4 Sur 6 Sur 0 -- -- 92
2020-05-06 04:00:00 15.2 0 Calma 5 Sudeste 0 -- -- 91
2020-05-06 03:00:00 16.1 3 Sudoeste 6 Sur 0 -- -- 92
2020-05-06 02:00:00 16.2 4 Sudeste 6 Sudeste 0 -- -- 90
2020-05-06 01:00:00 17 3 Sur 5 Sur 0 -- -- 89
2020-05-06 00:00:00 18 4 Sur 6 Sur 0 -- -- 86
2020-05-05 23:00:00 19.3 0 Calma 8 Nordeste 0 -- -- 83
2020-05-05 22:00:00 20.8 7 Nordeste 14 Norte 0 -- -- 79
2020-05-05 21:00:00 22 8 Nordeste 18 Norte 0 -- -- 72
2020-05-05 20:00:00 23.1 9 Nordeste 24 Norte 0 -- -- 66
2020-05-05 19:00:00 24.9 14 Nordeste 31 Nordeste 0 -- -- 56
2020-05-05 18:00:00 26 17 Nordeste 30 Nordeste 0 -- -- 55
2020-05-05 17:00:00 28.4 18 Norte 27 Norte 0 -- -- 54
2020-05-05 16:00:00 30.8 12 Este 24 Nordeste 0 -- -- 45
2020-05-05 15:00:00 30.6 13 Norte 24 Nordeste 0 -- -- 49
2020-05-05 14:00:00 31.4 5 Oeste 13 Oeste 0 -- -- 40
2020-05-05 13:00:00 29.8 5 Norte 12 Norte 0 -- -- 42
2020-05-05 12:00:00 28.1 4 Sur 13 Noroeste 0 -- -- 46
2020-05-05 11:00:00 25.5 5 Sudoeste 12 Sudoeste 0 -- -- 54
2020-05-05 10:00:00 22.6 8 Sur 15 Sur 0 -- -- 63
2020-05-05 09:00:00 19 7 Sur 12 Sur 0 -- -- 90
2020-05-05 08:00:00 16 5 Sur 9 Sur 0 -- -- 95
2020-05-05 07:00:00 15.3 5 Sudoeste 8 Sur 0 -- -- 94
2020-05-05 06:00:00 15.7 5 Sur 15 Sur 0 -- -- 95
2020-05-05 05:00:00 14.3 5 Sur 8 Sur 0 -- -- 94
2020-05-05 04:00:00 14.5 2 Sudeste 5 Sudeste 0 -- -- 93
2020-05-05 03:00:00 15.1 2 Sur 4 Sudoeste 0 -- -- 92
2020-05-05 02:00:00 15.7 0 Calma 7 Sur 0 -- -- 92
2020-05-05 01:00:00 16.4 6 Sur 7 Sur 0 -- -- 91
2020-05-05 00:00:00 17.4 2 Sur 10 Sur 0 -- -- 90
2020-05-04 23:00:00 18.5 5 Nordeste 14 Norte 0 -- -- 88
2020-05-04 22:00:00 19.1 10 Nordeste 17 Nordeste 0 -- -- 86
2020-05-04 21:00:00 20.5 8 Nordeste 18 Nordeste 0 -- -- 80
2020-05-04 20:00:00 21.9 12 Nordeste 23 Nordeste 0 -- -- 72
2020-05-04 19:00:00 22.6 15 Norte 28 Norte 0 -- -- 68
2020-05-04 18:00:00 24.1 15 Nordeste 29 Norte 0 -- -- 67
2020-05-04 17:00:00 27.4 14 Nordeste 26 Norte 0 -- -- 57
2020-05-04 16:00:00 27.1 15 Norte 27 Nordeste 0 -- -- 60
2020-05-04 15:00:00 26.6 14 Nordeste 25 Norte 0 -- -- 61
2020-05-04 14:00:00 25.4 15 Nordeste 23 Nordeste 0 -- -- 64
2020-05-04 13:00:00 25.6 12 Nordeste 20 Norte 0 -- -- 64
2020-05-04 12:00:00 24.1 8 Norte 15 Noroeste 0 -- -- 66
2020-05-04 11:00:00 21.9 7 Norte 12 Norte 0 -- -- 70
2020-05-04 10:00:00 20.2 2 Oeste 9 Oeste 0 -- -- 73
2020-05-04 09:00:00 18.1 5 Sudoeste 9 Sur 0 -- -- 80
2020-05-04 08:00:00 15.7 2 Sur 10 Sur 0 -- -- 94
2020-05-04 07:00:00 14.3 8 Sur 11 Sur 0 -- -- 94
2020-05-04 06:00:00 14.4 5 Sur 8 Sur 0 -- -- 93
2020-05-04 05:00:00 14.8 4 Sur 8 Sur 0 -- -- 93
2020-05-04 04:00:00 14.5 6 Sur 9 Sur 0 -- -- 93
2020-05-04 03:00:00 14.5 0 Calma 4 Sudoeste 0 -- -- 89
2020-05-04 02:00:00 15.4 2 Sur 7 Sur 0 -- -- 88
2020-05-04 01:00:00 16.6 5 Sur 7 Sur 0 -- -- 88
2020-05-04 00:00:00 17.5 4 Sudoeste 7 Sudoeste 0 -- -- 87
2020-05-03 23:00:00 18.8 4 Nordeste 12 Nordeste 0 -- -- 85
2020-05-03 22:00:00 19.6 9 Nordeste 22 Nordeste 0 -- -- 79
2020-05-03 21:00:00 21.1 15 Nordeste 26 Norte 0 -- -- 73
2020-05-03 20:00:00 23.8 13 Nordeste 25 Nordeste 0 -- -- 64
2020-05-03 19:00:00 28 13 Nordeste 24 Este 0 -- -- 45
2020-05-03 18:00:00 28.5 13 Este 29 Este 0 -- -- 41
2020-05-03 17:00:00 28.7 17 Este 33 Sudeste 0 -- -- 38
2020-05-03 16:00:00 28.8 18 Sudeste 30 Este 0 -- -- 41
2020-05-03 15:00:00 29 15 Este 31 Este 0 -- -- 41
2020-05-03 14:00:00 28.7 19 Este 31 Este 0 -- -- 42
2020-05-03 13:00:00 28.6 16 Sudeste 28 Sudeste 0 -- -- 43
2020-05-03 12:00:00 28.4 10 Este 18 Este 0 -- -- 45
2020-05-03 11:00:00 26.1 3 Norte 11 Sur 0 -- -- 48
2020-05-03 10:00:00 23.8 5 Sur 12 Sur 0 -- -- 51
2020-05-03 09:00:00 21.1 9 Sur 14 Sur 0 -- -- 60
2020-05-03 08:00:00 18.2 5 Sur 12 Sur 0 -- -- 72
2020-05-03 07:00:00 16.2 9 Sur 15 Sur 0 -- -- 75
2020-05-03 06:00:00 17.3 10 Sur 13 Sur 0 -- -- 71
2020-05-03 05:00:00 17.6 9 Sur 14 Sur 0 -- -- 70
2020-05-03 04:00:00 17.8 8 Sur 11 Sur 0 -- -- 70
2020-05-03 03:00:00 18.6 11 Sur 15 Sur 0 -- -- 67
2020-05-03 02:00:00 18.5 5 Sur 12 Sur 0 -- -- 67
2020-05-03 01:00:00 17.3 4 Sudeste 6 Sudeste 0 -- -- 74
2020-05-03 00:00:00 18.8 2 Este 9 Sur 0 -- -- 66
2020-05-02 23:00:00 20.8 8 Sur 13 Sudeste 0 -- -- 58
2020-05-02 22:00:00 23 4 Sudeste 9 Sur 0 -- -- 52
2020-05-02 21:00:00 27.7 7 Sur 18 Oeste 0 -- -- 38
2020-05-02 20:00:00 32.3 8 Oeste 29 Noroeste 0 -- -- 30
2020-05-02 19:00:00 33.4 13 Oeste 28 Oeste 0 -- -- 27
2020-05-02 18:00:00 33.8 16 Oeste 26 Noroeste 0 -- -- 30
2020-05-02 17:00:00 33.9 17 Noroeste 30 Noroeste 0 -- -- 28
2020-05-02 16:00:00 32.7 6 Noroeste 19 Oeste 0 -- -- 34
2020-05-02 15:00:00 31.4 5 Oeste 16 Sur 0 -- -- 36
2020-05-02 14:00:00 30.5 9 Oeste 20 Oeste 0 -- -- 37
2020-05-02 13:00:00 29.1 6 Sudoeste 25 Sudoeste 0 -- -- 44
2020-05-02 12:00:00 27.1 11 Noroeste 21 Oeste 0 -- -- 49
2020-05-02 11:00:00 25.4 9 Oeste 24 Oeste 0 -- -- 54
2020-05-02 10:00:00 22.9 15 Oeste 28 Oeste 0 -- -- 61
2020-05-02 09:00:00 21.2 17 Oeste 28 Oeste 0 -- -- 66
2020-05-02 08:00:00 17.8 5 Sudoeste 12 Sur 0 -- -- 79
2020-05-02 07:00:00 15.7 2 Sudeste 12 Sur 0 -- -- 83
2020-05-02 06:00:00 16.8 8 Sur 11 Sur 0 -- -- 81
2020-05-02 05:00:00 16.8 6 Sur 12 Sur 0 -- -- 80
2020-05-02 04:00:00 16.8 4 Sur 9 Sudeste 0 -- -- 80
2020-05-02 03:00:00 17 0 Calma 10 Sur 0 -- -- 79
2020-05-02 02:00:00 17.6 5 Sur 10 Sur 0 -- -- 75
2020-05-02 01:00:00 18.4 3 Sudeste 8 Sudoeste 0 -- -- 74
2020-05-02 00:00:00 20.2 4 Sudoeste 16 Sudoeste 0 -- -- 68
2020-05-01 23:00:00 22.2 3 Sur 15 Sur 0 -- -- 58
2020-05-01 22:00:00 23.6 6 Sudoeste 16 Sudoeste 0 -- -- 51
2020-05-01 21:00:00 25.1 7 Sudoeste 19 Oeste 0 -- -- 47
2020-05-01 20:00:00 26.8 13 Oeste 36 Oeste 0 -- -- 44
2020-05-01 19:00:00 29.7 19 Oeste 37 Oeste 0 -- -- 38
2020-05-01 18:00:00 30.1 18 Oeste 40 Noroeste 0 -- -- 38
2020-05-01 17:00:00 30.3 20 Oeste 38 Noroeste 0 -- -- 39
2020-05-01 16:00:00 30 20 Oeste 39 Noroeste 0 -- -- 40
2020-05-01 15:00:00 29.2 14 Oeste 35 Noroeste 0 -- -- 42
2020-05-01 14:00:00 27.8 18 Oeste 34 Oeste 0 -- -- 42
2020-05-01 13:00:00 26.4 12 Oeste 33 Sudoeste 0 -- -- 47
2020-05-01 12:00:00 24.7 20 Oeste 36 Oeste 0 -- -- 48
2020-05-01 11:00:00 23.2 12 Oeste 30 Oeste 0 -- -- 53
2020-05-01 10:00:00 21.4 15 Oeste 26 Oeste 0 -- -- 56
2020-05-01 09:00:00 19.2 7 Sudoeste 13 Sudoeste 0 -- -- 65
2020-05-01 08:00:00 14.7 5 Sur 9 Sur 0 -- -- 83
2020-05-01 07:00:00 14 3 Sudoeste 10 Sudoeste 0 -- -- 78
2020-05-01 06:00:00 14.7 0 Calma 13 Sur 0 -- -- 75
2020-05-01 05:00:00 16 7 Sudoeste 15 Sudeste 0 -- -- 68
2020-05-01 04:00:00 16.6 9 Sudeste 21 Sur 0 -- -- 67
2020-05-01 03:00:00 18.2 11 Sudoeste 23 Sudoeste 0 -- -- 61
2020-05-01 02:00:00 18.1 10 Oeste 24 Oeste 0 -- -- 59
2020-05-01 01:00:00 18.1 7 Sudoeste 15 Sudoeste 0 -- -- 59
2020-05-01 00:00:00 18.4 6 Sur 16 Oeste 0 -- -- 59
2020-04-30 23:00:00 18.7 8 Sudoeste 18 Sudoeste 0 -- -- 58
2020-04-30 22:00:00 20.5 6 Oeste 15 Oeste 0 -- -- 51
2020-04-30 21:00:00 22.6 6 Oeste 26 Noroeste 0 -- -- 45
2020-04-30 20:00:00 25.5 13 Oeste 31 Noroeste 0 -- -- 38
2020-04-30 19:00:00 26.6 19 Oeste 39 Oeste 0 -- -- 38
2020-04-30 18:00:00 26.9 21 Oeste 50 Oeste 0 -- -- 35
2020-04-30 17:00:00 26.9 25 Noroeste 43 Oeste 0 -- -- 36
2020-04-30 16:00:00 26.2 17 Oeste 41 Oeste 0 -- -- 41
2020-04-30 15:00:00 24 17 Oeste 42 Oeste 0 -- -- 45
2020-04-30 14:00:00 23.5 21 Oeste 41 Oeste 0 -- -- 49
2020-04-30 13:00:00 24 18 Oeste 40 Sudoeste 0 -- -- 48
2020-04-30 12:00:00 21.4 12 Oeste 26 Oeste 0 -- -- 55
2020-04-30 11:00:00 20.2 14 Oeste 27 Oeste 0 -- -- 58
2020-04-30 10:00:00 18 4 Sudoeste 12 Sur 0 -- -- 65
2020-04-30 09:00:00 17.8 6 Sudoeste 28 Sudoeste 0 -- -- 64
2020-04-30 08:00:00 18.4 10 Sudoeste 30 Oeste 0 -- -- 59
2020-04-30 07:00:00 17.9 10 Sudoeste 21 Sur 0 -- -- 62
2020-04-30 06:00:00 16.9 6 Sur 18 Sur 0 -- -- 66
2020-04-30 05:00:00 17.8 10 Sur 20 Sur 0 -- -- 61
2020-04-30 04:00:00 18 12 Sur 19 Sudoeste 0 -- -- 61
2020-04-30 03:00:00 16.3 6 Sur 13 Sur 0 -- -- 65
2020-04-30 02:00:00 16.9 7 Sur 16 Sudoeste 0 -- -- 60
2020-04-30 01:00:00 18 9 Sudoeste 21 Sudoeste 0 -- -- 55
2020-04-30 00:00:00 17.5 6 Sur 8 Sur 0 -- -- 63
2020-04-29 23:00:00 19.3 3 Sudoeste 12 Sudoeste 0 -- -- 54
2020-04-29 22:00:00 18.9 6 Sudoeste 10 Oeste 0 -- -- 53
2020-04-29 21:00:00 22 5 Sudoeste 19 Oeste 0 -- -- 44
2020-04-29 20:00:00 25.4 9 Oeste 39 Oeste 0 -- -- 35
2020-04-29 19:00:00 26.7 20 Oeste 38 Oeste 0 -- -- 32
2020-04-29 18:00:00 27.2 15 Oeste 38 Oeste 0 -- -- 34
2020-04-29 17:00:00 27.1 16 Oeste 35 Oeste 0 -- -- 35
2020-04-29 16:00:00 26.7 15 Oeste 38 Oeste 0 -- -- 35
2020-04-29 15:00:00 25.7 13 Oeste 32 Oeste 0 -- -- 37
2020-04-29 14:00:00 25.1 14 Oeste 28 Noroeste 0 -- -- 36
2020-04-29 13:00:00 23.5 15 Oeste 31 Oeste 0 -- -- 42
2020-04-29 12:00:00 22.5 13 Oeste 27 Noroeste 0 -- -- 41
2020-04-29 11:00:00 21 13 Oeste 23 Oeste 0 -- -- 46
2020-04-29 10:00:00 18.8 9 Sudoeste 17 Sur 0 -- -- 54
2020-04-29 09:00:00 16.7 8 Sur 15 Sudoeste 0 -- -- 59
2020-04-29 08:00:00 12.7 6 Sudoeste 12 Sur 0 -- -- 74
2020-04-29 07:00:00 12.2 7 Sur 17 Sur 0 -- -- 72
2020-04-29 06:00:00 14.1 5 Sudoeste 19 Sudoeste 0 -- -- 63
2020-04-29 05:00:00 14.1 9 Sudoeste 17 Sur 0 -- -- 62
2020-04-29 04:00:00 14.1 5 Sudeste 30 Oeste 0 -- -- 63
2020-04-29 03:00:00 13 7 Sudeste 14 Sudeste 0 -- -- 69
2020-04-29 02:00:00 13.2 9 Sur 14 Sur 0 -- -- 71
2020-04-29 01:00:00 12.9 6 Sur 12 Sur 0 -- -- 73
2020-04-29 00:00:00 13.4 2 Sudeste 9 Sudoeste 0 -- -- 74
2020-04-28 23:00:00 16.3 6 Sudoeste 22 Sudoeste 0 -- -- 59
2020-04-28 22:00:00 15.3 4 Sudoeste 8 Sudoeste 0 -- -- 68
2020-04-28 21:00:00 20 2 Sudoeste 22 Oeste 0 -- -- 53
2020-04-28 20:00:00 23.2 11 Oeste 36 Noroeste 0 -- -- 40
2020-04-28 19:00:00 24.5 15 Oeste 27 Noroeste 0 -- -- 40
2020-04-28 18:00:00 23.9 11 Oeste 30 Oeste 0 -- -- 42
2020-04-28 17:00:00 23.8 12 Oeste 32 Oeste 0 -- -- 40
2020-04-28 16:00:00 23.1 14 Oeste 31 Oeste 0 -- -- 44
2020-04-28 15:00:00 23 15 Noroeste 30 Noroeste 0 -- -- 41
2020-04-28 14:00:00 22.3 15 Oeste 32 Oeste 0 -- -- 46
2020-04-28 13:00:00 21.3 15 Oeste 44 Oeste 0 -- -- 49
2020-04-28 12:00:00 20.6 10 Noroeste 18 Noroeste 0 -- -- 56
2020-04-28 11:00:00 19.1 7 Oeste 13 Oeste 0 -- -- 61
2020-04-28 10:00:00 17.9 6 Oeste 15 Sudoeste 0 -- -- 65
2020-04-28 09:00:00 15.7 9 Sudoeste 18 Sudoeste 0 -- -- 73
2020-04-28 08:00:00 13.7 6 Sudoeste 19 Oeste 0 -- -- 79
2020-04-28 07:00:00 11.9 7 Sudoeste 18 Sur 0 -- -- 85
2020-04-28 06:00:00 10.8 7 Sur 12 Sur 0 -- -- 88
2020-04-28 05:00:00 11.1 4 Sudoeste 13 Oeste 0 -- -- 87
2020-04-28 04:00:00 12 5 Sur 13 Sudeste 0 -- -- 82
2020-04-28 03:00:00 11.4 2 Sur 11 Sur 0 -- -- 85
2020-04-28 02:00:00 12.5 3 Este 14 Oeste 0 -- -- 82
2020-04-28 01:00:00 13.4 4 Sudoeste 14 Sur 0 -- -- 78
2020-04-28 00:00:00 13.7 6 Sur 13 Sur 0 -- -- 79